Airport View

Enter AWOS ICAO identifier for current METAR.

ex. KFNL

KRCZ 181255Z AUTO 09005KT 10SM CLR 02/M07 A3051 RMK AO2 T00221074

18 Jan 2020 13:00

Frequency: 118.775

Phone: 910-997-4093

Other Area AWOS: KCQW - KHFF - KBBP - KAFP

TAF KLBT 181120Z 1812/1912 08005KT P6SM SCT200 FM181800 17005KT P6SM BKN035 FM190100 20010G17KT P6SM OVC035 WS020/20045KT FM190400 21011G30KT P6SM OVC015 WS020/21045KT FM190900 24010KT P6SM OVC015 AMD NOT SKED